createdAt,value
2018-06-22T00:00:04.711Z,99.99
2018-06-22T00:01:04.747Z,99.99
2018-06-22T00:02:04.803Z,99.99
2018-06-22T00:03:04.863Z,99.99
2018-06-22T00:04:04.944Z,99.99
2018-06-22T00:05:05.007Z,99.99
2018-06-22T00:06:05.115Z,99.99
2018-06-22T00:07:05.115Z,99.99
2018-06-22T00:08:05.179Z,99.99
2018-06-22T00:09:05.443Z,99.99
2018-06-22T00:10:05.387Z,99.99
2018-06-22T00:11:05.374Z,99.85
2018-06-22T00:12:05.431Z,99.99
2018-06-22T00:13:05.559Z,99.99
2018-06-22T00:14:05.576Z,99.99
2018-06-22T00:15:05.632Z,99.99
2018-06-22T00:16:05.687Z,99.99
2018-06-22T00:17:05.743Z,99.99
2018-06-22T00:18:05.804Z,99.99
2018-06-22T00:19:05.888Z,99.99
2018-06-22T00:20:05.952Z,99.99
2018-06-22T00:21:06.004Z,99.99
2018-06-22T00:22:06.064Z,99.99
2018-06-22T00:23:06.120Z,99.99
2018-06-22T00:24:06.320Z,99.99
2018-06-22T00:25:06.256Z,99.99
2018-06-22T00:26:06.316Z,99.99
2018-06-22T00:27:06.464Z,99.99
2018-06-22T00:28:06.432Z,99.99
2018-06-22T00:29:06.512Z,99.99
2018-06-22T00:30:06.576Z,99.99
2018-06-22T00:31:06.632Z,99.99
2018-06-22T00:32:06.706Z,99.99
2018-06-22T00:33:06.748Z,99.99
2018-06-22T00:34:06.828Z,99.99
2018-06-22T00:35:06.904Z,99.99
2018-06-22T00:36:06.948Z,99.99
2018-06-22T00:37:07.008Z,99.99
2018-06-22T00:38:07.065Z,99.99
2018-06-22T00:39:07.245Z,99.99
2018-06-22T00:40:07.186Z,99.99
2018-06-22T00:41:07.268Z,99.99
2018-06-22T00:42:07.317Z,99.99
2018-06-22T00:43:07.453Z,99.66
2018-06-22T00:44:07.485Z,99.75
2018-06-22T00:45:07.521Z,99.99
2018-06-22T00:46:07.573Z,99.75
2018-06-22T00:47:07.633Z,99.75
2018-06-22T00:48:07.777Z,99.99
2018-06-22T00:49:07.769Z,99.51
2018-06-22T00:50:07.833Z,99.99
2018-06-22T00:51:08.103Z,99.27
2018-06-22T00:52:07.950Z,99.95
2018-06-22T00:53:08.017Z,99.18
2018-06-22T00:54:08.193Z,99.95
2018-06-22T00:55:08.182Z,99.37
2018-06-22T00:56:08.214Z,99.08
2018-06-22T00:57:08.261Z,99.56
2018-06-22T00:58:08.361Z,99.66
2018-06-22T00:59:08.421Z,98.90
2018-06-22T01:00:08.461Z,99.66
2018-06-22T01:01:08.517Z,98.90
2018-06-22T01:02:08.585Z,98.51
2018-06-22T01:03:08.647Z,98.13
2018-06-22T01:04:08.698Z,98.03
2018-06-22T01:05:08.778Z,98.99
2018-06-22T01:06:08.834Z,98.80
2018-06-22T01:07:08.890Z,99.08
2018-06-22T01:08:08.950Z,99.27
2018-06-22T01:09:09.030Z,99.56
2018-06-22T01:10:09.086Z,99.37
2018-06-22T01:11:09.142Z,99.18
2018-06-22T01:12:09.210Z,98.70
2018-06-22T01:13:09.262Z,99.32
2018-06-22T01:14:09.434Z,99.60
2018-06-22T01:15:09.459Z,99.99
2018-06-22T01:16:09.450Z,99.89
2018-06-22T01:17:09.514Z,99.60
2018-06-22T01:18:09.574Z,99.89
2018-06-22T01:19:09.794Z,99.60
2018-06-22T01:20:09.710Z,99.99
2018-06-22T01:21:09.823Z,99.99
2018-06-22T01:22:09.848Z,99.89
2018-06-22T01:23:09.890Z,99.80
2018-06-22T01:24:09.955Z,99.99
2018-06-22T01:25:10.029Z,99.99
2018-06-22T01:26:10.083Z,99.99
2018-06-22T01:27:10.147Z,99.99
2018-06-22T01:28:10.202Z,99.99
2018-06-22T01:29:10.266Z,99.99
2018-06-22T01:30:10.347Z,99.99
2018-06-22T01:31:10.542Z,99.99
2018-06-22T01:32:10.459Z,99.99
2018-06-22T01:33:10.590Z,99.99
2018-06-22T01:34:10.578Z,99.99
2018-06-22T01:35:10.647Z,99.99
2018-06-22T01:36:10.728Z,99.99
2018-06-22T01:37:10.771Z,99.99
2018-06-22T01:38:10.835Z,99.99
2018-06-22T01:39:10.891Z,99.99
2018-06-22T01:40:10.963Z,99.99
2018-06-22T01:41:11.031Z,99.99
2018-06-22T01:42:11.155Z,99.99
2018-06-22T01:43:11.263Z,99.99
2018-06-22T01:44:11.208Z,99.99
2018-06-22T01:45:11.267Z,99.99
2018-06-22T01:46:11.423Z,99.99
2018-06-22T01:47:11.395Z,99.99
2018-06-22T01:48:11.463Z,99.99
2018-06-22T01:49:11.520Z,99.99
2018-06-22T01:50:11.583Z,99.99
2018-06-22T01:51:11.655Z,99.99
2018-06-22T01:52:11.715Z,99.99
2018-06-22T01:53:11.776Z,99.99
2018-06-22T01:54:11.977Z,99.99
2018-06-22T01:55:11.924Z,99.99
2018-06-22T01:56:11.984Z,99.99
2018-06-22T01:57:12.028Z,99.99
2018-06-22T01:58:12.100Z,99.99
2018-06-22T01:59:12.156Z,99.99
2018-06-22T02:00:12.208Z,99.99
2018-06-22T02:01:12.316Z,99.99
2018-06-22T02:02:12.328Z,99.99
2018-06-22T02:03:12.400Z,99.99
2018-06-22T02:04:12.456Z,99.99
2018-06-22T02:05:12.524Z,99.99
2018-06-22T02:06:12.698Z,99.99
2018-06-22T02:07:12.652Z,99.99
2018-06-22T02:08:12.708Z,99.99
2018-06-22T02:09:12.770Z,99.99
2018-06-22T02:10:12.829Z,99.99
2018-06-22T02:11:12.904Z,99.99
2018-06-22T02:12:12.968Z,99.99
2018-06-22T02:13:13.021Z,99.99
2018-06-22T02:14:13.084Z,99.99
2018-06-22T02:15:13.144Z,99.99
2018-06-22T02:16:13.513Z,99.99
2018-06-22T02:17:13.281Z,99.99
2018-06-22T02:18:13.337Z,99.99
2018-06-22T02:19:13.401Z,99.99
2018-06-22T02:20:13.457Z,99.99
2018-06-22T02:21:13.525Z,99.99
2018-06-22T02:22:13.589Z,99.99
2018-06-22T02:23:13.645Z,99.99
2018-06-22T02:24:13.709Z,99.99
2018-06-22T02:25:13.769Z,99.99
2018-06-22T02:26:13.842Z,99.99
2018-06-22T02:27:13.905Z,99.99
2018-06-22T02:28:13.957Z,99.99
2018-06-22T02:29:14.021Z,99.99
2018-06-22T02:30:14.191Z,99.99
2018-06-22T02:31:14.454Z,99.99
2018-06-22T02:32:14.209Z,99.99
2018-06-22T02:33:14.277Z,99.99
2018-06-22T02:34:14.342Z,99.99
2018-06-22T02:35:14.398Z,99.99
2018-06-22T02:36:14.465Z,99.99
2018-06-22T02:37:14.543Z,99.99
2018-06-22T02:38:14.589Z,99.99
2018-06-22T02:39:14.650Z,99.99
2018-06-22T02:40:14.782Z,99.99
2018-06-22T02:41:14.777Z,99.99
2018-06-22T02:42:14.951Z,99.99
2018-06-22T02:43:14.898Z,99.99
2018-06-22T02:44:14.957Z,99.99
2018-06-22T02:45:15.022Z,99.99
2018-06-22T02:46:15.086Z,99.99
2018-06-22T02:47:15.420Z,99.99
2018-06-22T02:48:15.210Z,99.99
2018-06-22T02:49:15.298Z,99.99
2018-06-22T02:50:15.334Z,99.99
2018-06-22T02:51:15.398Z,99.99
2018-06-22T02:52:15.466Z,99.99
2018-06-22T02:53:15.535Z,99.99
2018-06-22T02:54:15.587Z,99.99
2018-06-22T02:55:15.655Z,99.99
2018-06-22T02:56:15.710Z,99.99
2018-06-22T02:57:15.878Z,99.99
2018-06-22T02:58:15.846Z,99.99
2018-06-22T02:59:15.895Z,99.99
2018-06-22T03:00:15.966Z,99.99
2018-06-22T03:01:16.027Z,99.99
2018-06-22T03:02:16.194Z,99.99
2018-06-22T03:03:16.151Z,99.99
2018-06-22T03:04:16.210Z,99.99
2018-06-22T03:05:16.270Z,99.99
2018-06-22T03:06:16.338Z,99.99
2018-06-22T03:07:16.406Z,99.99
2018-06-22T03:08:17.239Z,99.99
2018-06-22T03:09:16.523Z,99.99
2018-06-22T03:10:16.675Z,99.99
2018-06-22T03:11:16.651Z,99.99
2018-06-22T03:12:16.791Z,99.99
2018-06-22T03:13:16.779Z,99.99
2018-06-22T03:14:16.867Z,99.99
2018-06-22T03:15:16.899Z,99.99
2018-06-22T03:16:16.967Z,99.99
2018-06-22T03:17:17.032Z,99.99
2018-06-22T03:18:17.095Z,99.99
2018-06-22T03:19:17.179Z,99.99
2018-06-22T03:20:17.219Z,99.99
2018-06-22T03:21:17.280Z,99.99
2018-06-22T03:22:17.343Z,99.99
2018-06-22T03:23:17.407Z,99.99
2018-06-22T03:24:17.643Z,99.99
2018-06-22T03:25:17.524Z,99.99
2018-06-22T03:26:17.588Z,99.99
2018-06-22T03:27:17.660Z,99.99
2018-06-22T03:28:17.796Z,99.99
2018-06-22T03:29:17.848Z,99.99
2018-06-22T03:30:17.841Z,99.99
2018-06-22T03:31:17.900Z,99.99
2018-06-22T03:32:17.968Z,99.99
2018-06-22T03:33:18.076Z,99.99
2018-06-22T03:34:18.088Z,99.99
2018-06-22T03:35:18.148Z,99.99
2018-06-22T03:36:18.281Z,99.99
2018-06-22T03:37:18.288Z,99.99
2018-06-22T03:38:18.453Z,99.99
2018-06-22T03:39:18.400Z,99.99
2018-06-22T03:40:18.460Z,99.99
2018-06-22T03:41:18.540Z,99.99
2018-06-22T03:42:18.620Z,99.99
2018-06-22T03:43:18.656Z,99.99
2018-06-22T03:44:18.716Z,99.99
2018-06-22T03:45:18.775Z,99.99
2018-06-22T03:46:18.837Z,99.99
2018-06-22T03:47:18.904Z,99.99
2018-06-22T03:48:18.969Z,99.99
2018-06-22T03:49:19.024Z,99.99
2018-06-22T03:50:19.133Z,99.99
2018-06-22T03:51:19.157Z,99.99
2018-06-22T03:52:19.225Z,99.99
2018-06-22T03:53:19.272Z,99.99
2018-06-22T03:54:19.336Z,99.99
2018-06-22T03:55:19.400Z,99.99
2018-06-22T03:56:19.528Z,99.99
2018-06-22T03:57:19.529Z,99.99
2018-06-22T03:58:19.593Z,99.99
2018-06-22T03:59:19.652Z,99.99
2018-06-22T04:00:19.857Z,99.99
2018-06-22T04:01:19.773Z,99.99
2018-06-22T04:02:19.841Z,99.99
2018-06-22T04:03:19.957Z,99.99
2018-06-22T04:04:19.997Z,99.99
2018-06-22T04:05:20.043Z,99.99
2018-06-22T04:06:20.085Z,99.99
2018-06-22T04:07:20.177Z,99.99
2018-06-22T04:08:20.214Z,99.99
2018-06-22T04:09:20.277Z,99.99
2018-06-22T04:10:20.341Z,99.99
2018-06-22T04:11:20.401Z,99.99
2018-06-22T04:12:20.465Z,99.99
2018-06-22T04:13:20.529Z,99.99
2018-06-22T04:14:20.586Z,99.99
2018-06-22T04:15:20.651Z,99.99
2018-06-22T04:16:20.713Z,99.99
2018-06-22T04:17:20.822Z,99.99
2018-06-22T04:18:20.846Z,99.99
2018-06-22T04:19:20.898Z,99.99
2018-06-22T04:20:20.961Z,99.99
2018-06-22T04:21:21.077Z,99.99
2018-06-22T04:22:21.102Z,99.99
2018-06-22T04:23:21.151Z,99.99
2018-06-22T04:24:21.254Z,99.99
2018-06-22T04:25:21.274Z,99.99
2018-06-22T04:26:21.334Z,99.99
2018-06-22T04:27:21.406Z,99.99
2018-06-22T04:28:21.466Z,99.99
2018-06-22T04:29:21.678Z,99.99
2018-06-22T04:30:21.586Z,99.99
2018-06-22T04:31:21.651Z,99.99
2018-06-22T04:32:21.718Z,99.99
2018-06-22T04:33:21.830Z,99.99
2018-06-22T04:34:21.850Z,99.99
2018-06-22T04:35:21.906Z,99.99
2018-06-22T04:36:21.967Z,99.99
2018-06-22T04:37:22.031Z,99.99
2018-06-22T04:38:22.094Z,99.99
2018-06-22T04:39:22.170Z,99.99
2018-06-22T04:40:22.210Z,99.99
2018-06-22T04:41:22.275Z,99.99
2018-06-22T04:42:22.378Z,99.99
2018-06-22T04:43:22.403Z,99.99
2018-06-22T04:44:22.462Z,99.99
2018-06-22T04:45:22.530Z,99.99
2018-06-22T04:46:22.587Z,99.99
2018-06-22T04:47:22.655Z,99.99
2018-06-22T04:48:22.718Z,99.99
2018-06-22T04:49:22.775Z,99.99
2018-06-22T04:50:22.843Z,99.99
2018-06-22T04:51:22.903Z,99.99
2018-06-22T04:52:22.972Z,99.99
2018-06-22T04:53:23.035Z,99.99
2018-06-22T04:54:23.247Z,99.99
2018-06-22T04:55:23.279Z,99.99
2018-06-22T04:56:23.216Z,99.99
2018-06-22T04:57:23.676Z,99.99
2018-06-22T04:58:23.344Z,99.99
2018-06-22T04:59:23.404Z,99.99
2018-06-22T05:00:23.463Z,99.99
2018-06-22T05:01:23.604Z,99.99
2018-06-22T05:02:23.767Z,99.99
2018-06-22T05:03:23.676Z,99.99
2018-06-22T05:04:23.716Z,99.99
2018-06-22T05:05:23.780Z,99.99
2018-06-22T05:06:23.844Z,99.99
2018-06-22T05:07:23.910Z,99.99
2018-06-22T05:08:24.044Z,99.99
2018-06-22T05:09:24.116Z,99.99
2018-06-22T05:10:24.096Z,99.99
2018-06-22T05:11:24.158Z,99.99
2018-06-22T05:12:24.220Z,99.99
2018-06-22T05:13:24.285Z,99.99
2018-06-22T05:14:24.364Z,99.99
2018-06-22T05:15:24.410Z,99.99
2018-06-22T05:16:24.474Z,99.99
2018-06-22T05:17:24.533Z,99.99
2018-06-22T05:18:24.648Z,99.99
2018-06-22T05:19:24.772Z,99.99
2018-06-22T05:20:24.729Z,99.99
2018-06-22T05:21:24.857Z,99.99
2018-06-22T05:22:24.849Z,99.99
2018-06-22T05:23:24.913Z,99.99
2018-06-22T05:24:24.981Z,99.99
2018-06-22T05:25:25.045Z,99.99
2018-06-22T05:26:25.102Z,99.99
2018-06-22T05:27:25.325Z,99.99
2018-06-22T05:28:25.224Z,99.99
2018-06-22T05:29:25.305Z,99.99
2018-06-22T05:30:25.411Z,99.99
2018-06-22T05:31:25.649Z,99.99
2018-06-22T05:32:25.477Z,99.99
2018-06-22T05:33:25.544Z,99.99
2018-06-22T05:34:25.612Z,99.99
2018-06-22T05:35:25.673Z,99.99
2018-06-22T05:36:25.729Z,99.99
2018-06-22T05:37:25.793Z,99.99
2018-06-22T05:38:25.853Z,99.99
2018-06-22T05:39:25.927Z,99.99
2018-06-22T05:40:25.997Z,99.99
2018-06-22T05:41:26.401Z,99.99
2018-06-22T05:42:26.151Z,99.99
2018-06-22T05:43:26.169Z,99.99
2018-06-22T05:44:26.256Z,99.99
2018-06-22T05:45:26.293Z,99.99
2018-06-22T05:46:26.357Z,99.99
2018-06-22T05:47:26.454Z,99.99
2018-06-22T05:48:26.485Z,99.99
2018-06-22T05:49:26.553Z,99.99
2018-06-22T05:50:26.634Z,99.99
2018-06-22T05:51:26.675Z,99.99
2018-06-22T05:52:26.733Z,99.99
2018-06-22T05:53:26.801Z,99.99
2018-06-22T05:54:26.874Z,99.99
2018-06-22T05:55:26.934Z,99.99
2018-06-22T05:56:27.001Z,99.99
2018-06-22T05:57:27.050Z,99.99
2018-06-22T05:58:27.113Z,99.99
2018-06-22T05:59:27.490Z,99.99
2018-06-22T06:00:27.322Z,99.99
2018-06-22T06:01:27.306Z,99.99
2018-06-22T06:02:27.366Z,99.99
2018-06-22T06:03:27.441Z,99.99
2018-06-22T06:04:27.510Z,99.99
2018-06-22T06:05:27.562Z,99.99
2018-06-22T06:06:27.619Z,99.99
2018-06-22T06:07:27.682Z,99.99
2018-06-22T06:08:27.742Z,99.99
2018-06-22T06:09:27.814Z,99.99
2018-06-22T06:10:27.882Z,99.99
2018-06-22T06:11:27.935Z,99.99
2018-06-22T06:12:28.030Z,99.99
2018-06-22T06:13:28.058Z,99.99
2018-06-22T06:14:28.437Z,99.99
2018-06-22T06:15:28.186Z,99.99
2018-06-22T06:16:28.244Z,99.99
2018-06-22T06:17:28.310Z,99.99
2018-06-22T06:18:28.490Z,99.99
2018-06-22T06:19:28.442Z,99.99
2018-06-22T06:20:28.510Z,99.99
2018-06-22T06:21:28.563Z,99.99
2018-06-22T06:22:28.627Z,99.99
2018-06-22T06:23:28.742Z,99.99
2018-06-22T06:24:28.760Z,99.99
2018-06-22T06:25:28.822Z,99.99
2018-06-22T06:26:28.878Z,99.99
2018-06-22T06:27:28.939Z,99.99
2018-06-22T06:28:28.999Z,99.99
2018-06-22T06:29:29.071Z,95.03
2018-06-22T06:30:29.136Z,87.51
2018-06-22T06:31:29.207Z,86.46
2018-06-22T06:32:29.264Z,85.16
2018-06-22T06:33:29.323Z,82.90
2018-06-22T06:34:29.400Z,80.22
2018-06-22T06:35:29.460Z,82.71
2018-06-22T06:36:29.515Z,81.90
2018-06-22T06:37:29.584Z,81.62
2018-06-22T06:38:29.647Z,81.96
2018-06-22T06:39:29.728Z,81.77
2018-06-22T06:40:29.784Z,84.22
2018-06-22T06:41:29.840Z,84.50
2018-06-22T06:42:29.908Z,86.51
2018-06-22T06:43:30.824Z,84.84
2018-06-22T06:44:30.045Z,85.61
2018-06-22T06:45:30.108Z,85.80
2018-06-22T06:46:30.776Z,84.94
2018-06-22T06:47:30.232Z,84.84
2018-06-22T06:48:30.299Z,85.80
2018-06-22T06:49:30.419Z,84.65
2018-06-22T06:50:30.433Z,85.61
2018-06-22T06:51:30.488Z,85.80
2018-06-22T06:52:30.553Z,85.80
2018-06-22T06:53:30.617Z,85.61
2018-06-22T06:54:30.689Z,85.18
2018-06-22T06:55:30.753Z,86.52
2018-06-22T06:56:30.809Z,86.52
2018-06-22T06:57:30.877Z,87.38
2018-06-22T06:58:30.941Z,86.14
2018-06-22T06:59:31.009Z,86.90
2018-06-22T07:00:31.073Z,88.34
2018-06-22T07:01:31.133Z,88.24
2018-06-22T07:02:31.262Z,87.66
2018-06-22T07:03:31.261Z,87.00
2018-06-22T07:04:31.501Z,88.24
2018-06-22T07:05:31.389Z,88.34
2018-06-22T07:06:31.454Z,87.09
2018-06-22T07:07:31.525Z,86.80
2018-06-22T07:08:31.667Z,87.29
2018-06-22T07:09:31.658Z,87.86
2018-06-22T07:10:31.713Z,89.48
2018-06-22T07:11:31.778Z,87.48
2018-06-22T07:12:31.842Z,87.71
2018-06-22T07:13:31.902Z,85.47
2018-06-22T07:14:32.062Z,86.14
2018-06-22T07:15:32.033Z,86.76
2018-06-22T07:16:32.095Z,86.94
2018-06-22T07:17:32.157Z,86.76
2018-06-22T07:18:32.225Z,84.75
2018-06-22T07:19:32.442Z,84.36
2018-06-22T07:20:32.346Z,84.75
2018-06-22T07:21:32.418Z,85.22
2018-06-22T07:22:32.478Z,86.08
2018-06-22T07:23:32.875Z,85.99
2018-06-22T07:24:32.726Z,87.29
2018-06-22T07:25:32.690Z,88.05
2018-06-22T07:26:32.734Z,88.81
2018-06-22T07:27:32.842Z,90.06
2018-06-22T07:28:32.858Z,89.48
2018-06-22T07:29:32.930Z,87.48
2018-06-22T07:30:32.998Z,87.14
2018-06-22T07:31:33.054Z,86.85
2018-06-22T07:32:33.164Z,87.33
2018-06-22T07:33:33.255Z,86.37
2018-06-22T07:34:33.243Z,85.61
2018-06-22T07:35:33.529Z,86.18
2018-06-22T07:36:33.370Z,86.08
2018-06-22T07:37:33.438Z,85.41
2018-06-22T07:38:33.701Z,84.36
2018-06-22T07:39:33.614Z,83.69
2018-06-22T07:40:33.635Z,83.12
2018-06-22T07:41:33.700Z,83.40
2018-06-22T07:42:33.783Z,84.75
2018-06-22T07:43:33.847Z,84.08
2018-06-22T07:44:33.883Z,85.71
2018-06-22T07:45:33.955Z,84.94
2018-06-22T07:46:34.031Z,84.75
2018-06-22T07:47:34.079Z,84.36
2018-06-22T07:48:34.147Z,84.08
2018-06-22T07:49:34.219Z,84.46
2018-06-22T07:50:34.515Z,84.36
2018-06-22T07:51:34.399Z,85.03
2018-06-22T07:52:34.396Z,84.55
2018-06-22T07:53:34.455Z,83.22
2018-06-22T07:54:34.533Z,82.64
2018-06-22T07:55:34.596Z,83.22
2018-06-22T07:56:34.671Z,82.64
2018-06-22T07:57:34.716Z,83.60
2018-06-22T07:58:34.798Z,83.79
2018-06-22T07:59:34.847Z,83.50
2018-06-22T08:00:34.928Z,84.94
2018-06-22T08:01:35.001Z,83.79
2018-06-22T08:02:35.136Z,83.12
2018-06-22T08:03:35.104Z,84.27
2018-06-22T08:04:35.168Z,84.55
2018-06-22T08:05:35.247Z,85.03
2018-06-22T08:06:35.348Z,85.32
2018-06-22T08:07:35.364Z,88.00
2018-06-22T08:08:35.441Z,86.08
2018-06-22T08:09:35.548Z,84.94
2018-06-22T08:10:35.569Z,85.47
2018-06-22T08:11:35.623Z,84.89
2018-06-22T08:12:35.684Z,84.52
2018-06-22T08:13:35.773Z,86.47
2018-06-22T08:14:35.812Z,84.70
2018-06-22T08:15:35.880Z,84.61
2018-06-22T08:16:35.944Z,84.80
2018-06-22T08:17:36.003Z,84.23
2018-06-22T08:18:36.080Z,83.94
2018-06-22T08:19:36.124Z,84.13
2018-06-22T08:20:36.248Z,84.03
2018-06-22T08:21:36.261Z,84.23
2018-06-22T08:22:36.324Z,84.17
2018-06-22T08:23:36.446Z,81.93
2018-06-22T08:24:36.484Z,82.89
2018-06-22T08:25:36.524Z,83.89
2018-06-22T08:26:36.576Z,84.08
2018-06-22T08:27:36.722Z,82.45
2018-06-22T08:28:36.721Z,80.54
2018-06-22T08:29:36.819Z,81.68
2018-06-22T08:30:36.833Z,79.96
2018-06-22T08:31:36.896Z,79.77
2018-06-22T08:32:36.953Z,79.96
2018-06-22T08:33:37.031Z,80.44
2018-06-22T08:34:37.088Z,80.92
2018-06-22T08:35:37.265Z,80.92
2018-06-22T08:36:37.393Z,81.21
2018-06-22T08:37:37.273Z,83.12
2018-06-22T08:38:37.473Z,82.54
2018-06-22T08:39:37.401Z,81.68
2018-06-22T08:40:37.481Z,82.79
2018-06-22T08:41:37.806Z,83.50
2018-06-22T08:42:37.621Z,85.22
2018-06-22T08:43:37.657Z,84.27
2018-06-22T08:44:37.717Z,85.32
2018-06-22T08:45:37.813Z,87.43
2018-06-22T08:46:37.897Z,89.24
2018-06-22T08:47:37.913Z,90.30
2018-06-22T08:48:37.980Z,88.43
2018-06-22T08:49:38.076Z,88.15
2018-06-22T08:50:38.106Z,89.48
2018-06-22T08:51:38.198Z,89.48
2018-06-22T08:52:38.238Z,90.63
2018-06-22T08:53:38.298Z,89.01
2018-06-22T08:54:38.362Z,89.29
2018-06-22T08:55:38.454Z,92.54
2018-06-22T08:56:38.502Z,91.39
2018-06-22T08:57:38.574Z,89.10
2018-06-22T08:58:38.618Z,91.30
2018-06-22T08:59:38.702Z,89.01
2018-06-22T09:00:38.750Z,89.77
2018-06-22T09:01:38.903Z,88.43
2018-06-22T09:02:38.878Z,90.48
2018-06-22T09:03:38.935Z,87.29
2018-06-22T09:04:39.011Z,87.00
2018-06-22T09:05:39.071Z,86.80
2018-06-22T09:06:39.155Z,87.38
2018-06-22T09:07:39.203Z,88.24
2018-06-22T09:08:39.270Z,87.76
2018-06-22T09:09:39.463Z,88.43
2018-06-22T09:10:39.391Z,91.02
2018-06-22T09:11:39.547Z,91.59
2018-06-22T09:12:39.566Z,91.39
2018-06-22T09:13:39.579Z,92.93
2018-06-22T09:14:39.639Z,90.06
2018-06-22T09:15:39.703Z,93.50
2018-06-22T09:16:39.783Z,91.16
2018-06-22T09:17:39.858Z,92.49
2018-06-22T09:18:39.946Z,88.91
2018-06-22T09:19:40.028Z,88.09
2018-06-22T09:20:40.037Z,88.09
2018-06-22T09:21:40.244Z,88.09
2018-06-22T09:22:40.152Z,88.67
2018-06-22T09:23:40.327Z,88.38
2018-06-22T09:24:40.339Z,88.00
2018-06-22T09:25:40.350Z,89.53
2018-06-22T09:26:40.556Z,88.29
2018-06-22T09:27:40.484Z,88.76
2018-06-22T09:28:40.543Z,88.81
2018-06-22T09:29:40.635Z,86.61
2018-06-22T09:30:40.671Z,86.32
2018-06-22T09:31:40.747Z,85.84
2018-06-22T09:32:40.803Z,88.81
2018-06-22T09:33:40.866Z,86.90
2018-06-22T09:34:40.923Z,85.08
2018-06-22T09:35:40.991Z,87.08
2018-06-22T09:36:41.109Z,87.27
2018-06-22T09:37:41.150Z,88.81
2018-06-22T09:38:41.299Z,89.15
2018-06-22T09:39:41.299Z,91.35
2018-06-22T09:40:41.340Z,93.07
2018-06-22T09:41:41.396Z,90.58
2018-06-22T09:42:41.529Z,92.30
2018-06-22T09:43:41.508Z,91.16
2018-06-22T09:44:41.564Z,90.39
2018-06-22T09:45:41.673Z,93.84
2018-06-22T09:46:41.704Z,94.41
2018-06-22T09:47:41.768Z,93.16
2018-06-22T09:48:41.826Z,93.26
2018-06-22T09:49:41.888Z,90.48
2018-06-22T09:50:41.955Z,91.25
2018-06-22T09:51:42.024Z,97.66
2018-06-22T09:52:42.088Z,97.75
2018-06-22T09:53:42.248Z,95.27
2018-06-22T09:54:42.225Z,98.52
2018-06-22T09:55:42.272Z,93.16
2018-06-22T09:56:42.344Z,92.40
2018-06-22T09:57:42.408Z,92.49
2018-06-22T09:58:42.465Z,91.25
2018-06-22T09:59:42.528Z,95.07
2018-06-22T10:00:42.589Z,92.11
2018-06-22T10:01:42.666Z,89.91
2018-06-22T10:02:42.728Z,90.20
2018-06-22T10:03:42.796Z,92.49
2018-06-22T10:04:42.899Z,91.53
2018-06-22T10:05:42.916Z,90.10
2018-06-22T10:06:42.987Z,89.15
2018-06-22T10:07:43.048Z,88.19
2018-06-22T10:08:43.109Z,90.10
2018-06-22T10:09:43.197Z,94.50
2018-06-22T10:10:43.379Z,91.20
2018-06-22T10:11:43.457Z,91.39
2018-06-22T10:12:43.365Z,85.84
2018-06-22T10:13:43.429Z,86.22
2018-06-22T10:14:43.725Z,86.94
2018-06-22T10:15:43.597Z,85.60
2018-06-22T10:16:43.629Z,82.53
2018-06-22T10:17:43.737Z,83.59
2018-06-22T10:18:43.757Z,83.34
2018-06-22T10:19:43.880Z,85.41
2018-06-22T10:20:43.881Z,82.73
2018-06-22T10:21:43.953Z,84.92
2018-06-22T10:22:44.017Z,82.82
2018-06-22T10:23:44.077Z,81.00
2018-06-22T10:24:44.249Z,83.39
2018-06-22T10:25:44.209Z,82.57
2018-06-22T10:26:44.273Z,81.29
2018-06-22T10:27:44.358Z,79.57
2018-06-22T10:28:44.398Z,79.47
2018-06-22T10:29:44.461Z,79.37
2018-06-22T10:30:44.555Z,80.08
2018-06-22T10:31:44.597Z,78.93
2018-06-22T10:32:44.672Z,78.42
2018-06-22T10:33:44.742Z,80.08
2018-06-22T10:34:44.785Z,79.45
2018-06-22T10:35:44.854Z,76.86
2018-06-22T10:36:44.918Z,76.00
2018-06-22T10:37:44.990Z,74.37
2018-06-22T10:38:45.054Z,75.48
2018-06-22T10:39:45.114Z,76.86
2018-06-22T10:40:45.238Z,76.92
2018-06-22T10:41:45.242Z,77.50
2018-06-22T10:42:45.306Z,78.17
2018-06-22T10:43:49.150Z,77.11
2018-06-22T10:44:48.579Z,78.49
2018-06-22T10:45:47.866Z,77.15
2018-06-22T10:46:48.299Z,76.96
2018-06-22T10:47:48.522Z,76.71
2018-06-22T10:48:48.162Z,74.60
2018-06-22T10:49:49.995Z,74.89
2018-06-22T10:50:49.118Z,73.41
2018-06-22T10:51:48.899Z,75.14
2018-06-22T10:52:48.498Z,74.95
2018-06-22T10:53:49.334Z,77.25
2018-06-22T10:54:48.699Z,77.50
2018-06-22T10:55:50.179Z,77.34
2018-06-22T10:56:49.294Z,79.51
2018-06-22T10:57:48.963Z,76.25
2018-06-22T10:58:49.047Z,75.48
2018-06-22T10:59:50.912Z,75.87
2018-06-22T11:00:49.783Z,77.59
2018-06-22T11:01:50.850Z,79.03
2018-06-22T11:02:49.055Z,78.64
2018-06-22T11:03:50.163Z,77.69
2018-06-22T11:04:49.871Z,77.11
2018-06-22T11:05:50.229Z,79.13
2018-06-22T11:06:49.796Z,80.66
2018-06-22T11:07:50.427Z,80.27
2018-06-22T11:08:49.984Z,80.85
2018-06-22T11:09:49.881Z,82.09
2018-06-22T11:10:50.080Z,80.08
2018-06-22T11:11:49.672Z,80.94
2018-06-22T11:12:50.888Z,82.38
2018-06-22T11:13:51.027Z,81.13
2018-06-22T11:14:50.636Z,81.13
2018-06-22T11:15:49.553Z,79.80
2018-06-22T11:16:50.101Z,79.55
2018-06-22T11:17:51.008Z,77.29
2018-06-22T11:18:50.347Z,77.67
2018-06-22T11:19:51.556Z,77.23
2018-06-22T11:20:49.821Z,77.17
2018-06-22T11:21:50.276Z,72.75
2018-06-22T11:22:50.724Z,73.37
2018-06-22T11:23:51.375Z,72.31
2018-06-22T11:24:50.891Z,70.07
2018-06-22T11:25:51.396Z,70.55
2018-06-22T11:26:50.864Z,69.97
2018-06-22T11:27:50.788Z,69.87
2018-06-22T11:28:50.630Z,69.78
2018-06-22T11:29:52.440Z,71.31
2018-06-22T11:30:50.082Z,72.56
2018-06-22T11:31:52.392Z,72.24
2018-06-22T11:32:51.172Z,71.37
2018-06-22T11:33:51.584Z,72.49
2018-06-22T11:34:50.165Z,72.84
2018-06-22T11:35:51.600Z,75.43
2018-06-22T11:36:51.222Z,77.73
2018-06-22T11:37:52.585Z,80.27
2018-06-22T11:38:52.668Z,82.19
2018-06-22T11:39:52.018Z,83.39
2018-06-22T11:40:51.841Z,89.33
2018-06-22T11:41:51.329Z,91.20
2018-06-22T11:42:51.849Z,93.21
2018-06-22T11:43:51.469Z,93.64
2018-06-22T11:44:51.686Z,95.17
2018-06-22T11:45:51.673Z,95.27
2018-06-22T11:46:52.011Z,96.70
2018-06-22T11:47:51.694Z,97.33
2018-06-22T11:48:51.762Z,97.33
2018-06-22T11:49:53.014Z,99.05
2018-06-22T11:50:55.882Z,98.81
2018-06-22T11:51:52.187Z,93.16
2018-06-22T11:52:52.974Z,94.02
2018-06-22T11:53:52.753Z,90.53
2018-06-22T11:54:52.217Z,88.80
2018-06-22T11:55:53.746Z,91.28
2018-06-22T11:56:53.330Z,92.48
2018-06-22T11:57:52.098Z,83.27
2018-06-22T11:58:53.394Z,77.80
2018-06-22T11:59:53.434Z,78.96
2018-06-22T12:00:52.630Z,78.28
2018-06-22T12:01:52.802Z,81.68
2018-06-22T12:02:52.778Z,81.87
2018-06-22T12:03:52.800Z,77.75
2018-06-22T12:04:52.598Z,75.73
2018-06-22T12:05:53.703Z,76.59
2018-06-22T12:06:53.154Z,78.36
2018-06-22T12:07:53.739Z,75.92
2018-06-22T12:08:53.278Z,78.36
2018-06-22T12:09:53.218Z,75.57
2018-06-22T12:10:53.489Z,74.77
2018-06-22T12:11:53.534Z,76.09
2018-06-22T12:12:54.114Z,77.25
2018-06-22T12:13:54.738Z,77.44
2018-06-22T12:14:54.186Z,74.55
2018-06-22T12:15:54.319Z,73.83
2018-06-22T12:16:53.955Z,70.11
2018-06-22T12:17:53.947Z,71.94
2018-06-22T12:18:53.902Z,67.51
2018-06-22T12:19:54.526Z,66.65
2018-06-22T12:20:53.543Z,66.33
2018-06-22T12:21:54.326Z,66.61
2018-06-22T12:22:53.898Z,68.73
2018-06-22T12:23:58.483Z,68.47
2018-06-22T12:24:54.463Z,69.20
2018-06-22T12:25:55.098Z,69.20
2018-06-22T12:26:54.740Z,70.07
2018-06-22T12:27:55.275Z,70.64
2018-06-22T12:28:53.711Z,71.95
2018-06-22T12:29:54.847Z,73.58
2018-06-22T12:30:54.768Z,73.10
2018-06-22T12:31:56.183Z,73.10
2018-06-22T12:32:54.504Z,72.30
2018-06-22T12:33:55.119Z,74.41
2018-06-22T12:34:55.891Z,76.37
2018-06-22T12:35:55.195Z,79.14
2018-06-22T12:36:55.492Z,77.00
2018-06-22T12:37:56.670Z,79.01
2018-06-22T12:38:55.831Z,81.79
2018-06-22T12:39:55.967Z,86.40
2018-06-22T12:40:55.884Z,83.91
2018-06-22T12:41:55.263Z,81.66
2018-06-22T12:42:56.164Z,80.99
2018-06-22T12:43:56.584Z,82.90
2018-06-22T12:44:57.061Z,82.57
2018-06-22T12:45:56.620Z,87.94
2018-06-22T12:46:56.208Z,89.23
2018-06-22T12:47:57.016Z,89.09
2018-06-22T12:48:57.148Z,86.98
2018-06-22T12:49:58.234Z,87.74
2018-06-22T12:50:56.884Z,86.98
2018-06-22T12:51:57.059Z,88.61
2018-06-22T12:52:58.952Z,89.66